createdAt,value
2023-04-11T00:01:08.023Z,2.83
2023-04-11T00:03:34.735Z,3.30
2023-04-11T00:06:01.575Z,3.10
2023-04-11T00:08:28.094Z,3.43
2023-04-11T00:10:54.669Z,3.00
2023-04-11T00:13:21.437Z,2.90
2023-04-11T00:15:48.036Z,3.20
2023-04-11T00:18:14.690Z,3.27
2023-04-11T00:20:41.246Z,3.00
2023-04-11T00:23:08.878Z,3.37
2023-04-11T00:25:37.249Z,2.63
2023-04-11T00:28:04.308Z,3.50
2023-04-11T00:30:31.037Z,3.20
2023-04-11T00:32:57.640Z,3.00
2023-04-11T00:35:24.410Z,2.80
2023-04-11T00:37:56.040Z,2.90
2023-04-11T00:40:23.035Z,3.13
2023-04-11T00:42:49.567Z,3.10
2023-04-11T00:45:16.190Z,2.70
2023-04-11T00:47:42.797Z,3.23
2023-04-11T00:50:09.685Z,3.07
2023-04-11T00:52:36.529Z,2.70
2023-04-11T00:55:03.497Z,3.03
2023-04-11T00:57:30.911Z,3.10
2023-04-11T00:59:58.248Z,3.23
2023-04-11T01:02:25.132Z,2.80
2023-04-11T01:04:51.752Z,2.90
2023-04-11T01:07:18.275Z,2.83
2023-04-11T01:09:44.852Z,2.97
2023-04-11T01:12:11.691Z,2.97
2023-04-11T01:14:38.330Z,2.87
2023-04-11T01:17:05.086Z,2.80
2023-04-11T01:19:32.045Z,2.73
2023-04-11T01:21:58.839Z,3.20
2023-04-11T01:24:25.667Z,2.90
2023-04-11T01:26:52.247Z,3.20
2023-04-11T01:29:18.838Z,3.30
2023-04-11T01:31:45.532Z,3.00
2023-04-11T01:34:14.145Z,2.60
2023-04-11T01:36:41.643Z,2.80
2023-04-11T01:39:08.242Z,2.90
2023-04-11T01:41:35.739Z,3.00
2023-04-11T01:44:03.876Z,2.80
2023-04-11T01:46:30.506Z,3.00
2023-04-11T01:48:58.183Z,3.00
2023-04-11T01:51:24.854Z,3.00
2023-04-11T01:53:51.386Z,3.30
2023-04-11T01:56:17.926Z,2.93
2023-04-11T01:58:44.514Z,3.00
2023-04-11T02:01:13.279Z,3.17
2023-04-11T02:03:39.969Z,3.20
2023-04-11T02:06:06.663Z,3.30
2023-04-11T02:08:33.170Z,3.20
2023-04-11T02:10:59.697Z,3.00
2023-04-11T02:13:26.237Z,3.10
2023-04-11T02:15:52.829Z,3.10
2023-04-11T02:18:19.446Z,3.23
2023-04-11T02:20:46.001Z,2.77
2023-04-11T02:23:12.762Z,2.80
2023-04-11T02:25:39.380Z,3.27
2023-04-11T02:28:08.109Z,3.17
2023-04-11T02:30:34.936Z,3.03
2023-04-11T02:33:01.707Z,3.00
2023-04-11T02:35:28.403Z,3.07
2023-04-11T02:37:54.939Z,2.93
2023-04-11T02:40:21.457Z,3.17
2023-04-11T02:42:48.041Z,2.67
2023-04-11T02:45:14.582Z,3.10
2023-04-11T02:47:41.244Z,3.00
2023-04-11T02:50:08.547Z,2.97
2023-04-11T02:52:35.088Z,2.83
2023-04-11T02:55:01.720Z,3.10
2023-04-11T02:57:28.250Z,3.13
2023-04-11T02:59:54.733Z,2.80
2023-04-11T03:02:23.464Z,3.10
2023-04-11T03:04:50.176Z,3.03
2023-04-11T03:07:16.728Z,2.90
2023-04-11T03:09:43.343Z,3.10
2023-04-11T03:12:09.947Z,3.10
2023-04-11T03:14:36.452Z,3.00
2023-04-11T03:17:02.912Z,3.00
2023-04-11T03:19:29.471Z,2.87
2023-04-11T03:21:56.024Z,2.77
2023-04-11T03:24:22.581Z,3.07
2023-04-11T03:26:49.119Z,2.80
2023-04-11T03:29:16.640Z,3.30
2023-04-11T03:31:43.305Z,2.80
2023-04-11T03:34:09.839Z,3.00
2023-04-11T03:36:36.337Z,3.00
2023-04-11T03:39:03.819Z,2.90
2023-04-11T03:41:30.373Z,3.00
2023-04-11T03:43:56.889Z,2.90
2023-04-11T03:46:23.529Z,2.80
2023-04-11T03:48:50.244Z,3.03
2023-04-11T03:51:16.833Z,2.93
2023-04-11T03:53:43.374Z,2.90
2023-04-11T03:56:10.343Z,3.10
2023-04-11T03:58:37.084Z,3.00
2023-04-11T04:01:03.743Z,3.17
2023-04-11T04:03:30.631Z,3.20
2023-04-11T04:05:57.289Z,3.17
2023-04-11T04:08:23.803Z,3.33
2023-04-11T04:10:50.392Z,3.37
2023-04-11T04:13:16.973Z,3.50
2023-04-11T04:15:43.575Z,3.40
2023-04-11T04:18:10.386Z,3.40
2023-04-11T04:20:36.991Z,3.23
2023-04-11T04:23:04.643Z,3.33
2023-04-11T04:25:31.299Z,3.50
2023-04-11T04:27:58.202Z,3.73
2023-04-11T04:30:28.633Z,3.67
2023-04-11T04:33:00.015Z,3.30
2023-04-11T04:35:26.793Z,3.50
2023-04-11T04:37:54.191Z,3.50
2023-04-11T04:40:21.370Z,3.10
2023-04-11T04:42:58.173Z,3.30
2023-04-11T04:45:25.977Z,3.37
2023-04-11T04:47:52.556Z,3.67
2023-04-11T04:50:19.735Z,3.63
2023-04-11T04:52:46.555Z,3.53
2023-04-11T04:55:13.875Z,3.63
2023-04-11T04:57:40.577Z,3.20
2023-04-11T05:00:11.436Z,3.00
2023-04-11T05:02:38.211Z,3.97
2023-04-11T05:05:05.388Z,3.57
2023-04-11T05:07:31.953Z,3.03
2023-04-11T05:09:58.513Z,3.33
2023-04-11T05:12:27.246Z,3.40
2023-04-11T05:14:55.500Z,3.70
2023-04-11T05:17:24.699Z,3.43
2023-04-11T05:19:52.230Z,3.50
2023-04-11T05:22:18.808Z,3.70
2023-04-11T05:24:45.394Z,3.70
2023-04-11T05:27:13.368Z,3.63
2023-04-11T05:29:40.038Z,3.93
2023-04-11T05:32:06.600Z,4.63
2023-04-11T05:34:34.357Z,4.23
2023-04-11T05:37:01.441Z,3.80
2023-04-11T05:39:28.031Z,4.60
2023-04-11T05:41:54.613Z,4.90
2023-04-11T05:44:21.272Z,6.17
2023-04-11T05:46:47.790Z,5.60
2023-04-11T05:49:14.358Z,5.80
2023-04-11T05:51:41.038Z,6.37
2023-04-11T05:54:07.640Z,5.70
2023-04-11T05:56:35.260Z,5.97
2023-04-11T05:59:01.845Z,5.97
2023-04-11T06:01:30.152Z,5.37
2023-04-11T06:03:57.579Z,5.80
2023-04-11T06:06:24.648Z,5.70
2023-04-11T06:08:51.743Z,6.00
2023-04-11T06:11:18.308Z,5.67
2023-04-11T06:13:44.837Z,5.80
2023-04-11T06:16:11.452Z,5.00
2023-04-11T06:18:38.031Z,5.30
2023-04-11T06:21:04.727Z,4.80
2023-04-11T06:23:31.222Z,5.20
2023-04-11T06:25:57.723Z,5.03
2023-04-11T06:28:24.249Z,4.97
2023-04-11T06:30:52.195Z,5.07
2023-04-11T06:33:18.818Z,4.53
2023-04-11T06:35:45.714Z,4.83
2023-04-11T06:38:12.317Z,4.67
2023-04-11T06:40:38.838Z,4.63
2023-04-11T06:43:05.526Z,4.53
2023-04-11T06:45:32.031Z,4.93
2023-04-11T06:47:58.659Z,4.37
2023-04-11T06:50:25.265Z,4.13
2023-04-11T06:52:51.893Z,4.50
2023-04-11T06:55:18.555Z,4.63
2023-04-11T06:57:45.252Z,4.27
2023-04-11T07:00:13.406Z,4.50
2023-04-11T07:02:40.128Z,4.37
2023-04-11T07:05:09.245Z,4.30
2023-04-11T07:07:36.371Z,4.10
2023-04-11T07:10:03.273Z,3.93
2023-04-11T07:12:29.759Z,4.37
2023-04-11T07:14:57.591Z,4.10
2023-04-11T07:17:24.324Z,4.33
2023-04-11T07:19:50.970Z,4.57
2023-04-11T07:22:17.488Z,3.97
2023-04-11T07:24:46.538Z,3.97
2023-04-11T07:27:14.289Z,4.20
2023-04-11T07:29:41.168Z,3.50
2023-04-11T07:32:07.756Z,4.23
2023-04-11T07:34:34.298Z,4.13
2023-04-11T07:37:01.112Z,4.10
2023-04-11T07:39:27.853Z,3.43
2023-04-11T07:41:54.445Z,3.97
2023-04-11T07:44:21.937Z,3.83
2023-04-11T07:46:48.957Z,3.80
2023-04-11T07:49:15.643Z,3.60
2023-04-11T07:51:42.164Z,3.83
2023-04-11T07:54:09.555Z,4.40
2023-04-11T07:56:36.181Z,4.37
2023-04-11T07:59:03.332Z,3.37
2023-04-11T08:01:29.835Z,3.50
2023-04-11T08:03:56.735Z,3.50
2023-04-11T08:06:23.734Z,3.70
2023-04-11T08:08:50.639Z,3.70
2023-04-11T08:11:17.227Z,3.30
2023-04-11T08:13:43.752Z,3.40
2023-04-11T08:16:11.763Z,2.87
2023-04-11T08:18:42.012Z,3.27
2023-04-11T08:21:10.808Z,3.43
2023-04-11T08:23:37.529Z,3.13
2023-04-11T08:26:04.074Z,3.50
2023-04-11T08:28:30.797Z,3.30
2023-04-11T08:30:58.426Z,3.43
2023-04-11T08:33:26.140Z,3.40
2023-04-11T08:35:52.801Z,3.53
2023-04-11T08:38:19.737Z,3.20
2023-04-11T08:40:46.447Z,3.30
2023-04-11T08:43:13.075Z,3.30
2023-04-11T08:45:40.141Z,3.50
2023-04-11T08:48:07.257Z,2.87
2023-04-11T08:50:34.702Z,3.33
2023-04-11T08:53:04.304Z,3.40
2023-04-11T08:55:31.294Z,3.27
2023-04-11T08:57:59.606Z,3.47
2023-04-11T09:00:28.927Z,3.10
2023-04-11T09:02:56.985Z,2.93
2023-04-11T09:05:27.209Z,3.63
2023-04-11T09:07:54.889Z,3.33
2023-04-11T09:10:22.084Z,3.07
2023-04-11T09:12:48.711Z,3.37
2023-04-11T09:15:22.457Z,3.03
2023-04-11T09:17:49.909Z,2.70
2023-04-11T09:20:20.434Z,2.90
2023-04-11T09:22:49.953Z,2.97
2023-04-11T09:25:18.145Z,3.00
2023-04-11T09:27:44.690Z,3.13
2023-04-11T09:30:20.056Z,3.23
2023-04-11T09:32:48.647Z,2.70
2023-04-11T09:35:20.544Z,3.30
2023-04-11T09:37:47.683Z,2.90
2023-04-11T09:40:14.996Z,2.90
2023-04-11T09:42:42.168Z,2.60
2023-04-11T09:45:18.143Z,2.70
2023-04-11T09:47:45.866Z,2.73
2023-04-11T09:50:12.915Z,2.60
2023-04-11T09:52:41.150Z,2.67
2023-04-11T09:55:08.170Z,2.83
2023-04-11T09:57:34.868Z,2.60
2023-04-11T10:00:06.569Z,2.33
2023-04-11T10:02:33.224Z,2.47
2023-04-11T10:05:04.250Z,2.60
2023-04-11T10:07:30.925Z,2.67
2023-04-11T10:09:57.584Z,2.67
2023-04-11T10:12:33.486Z,2.63
2023-04-11T10:15:08.280Z,2.97
2023-04-11T10:17:34.975Z,2.40
2023-04-11T10:20:01.655Z,2.63
2023-04-11T10:22:43.925Z,2.40
2023-04-11T10:25:17.649Z,2.50
2023-04-11T10:27:50.694Z,3.00
2023-04-11T10:30:17.233Z,2.33
2023-04-11T10:33:09.565Z,2.33
2023-04-11T10:35:36.212Z,2.60
2023-04-11T10:38:02.756Z,2.37
2023-04-11T10:40:29.322Z,2.70
2023-04-11T10:42:57.357Z,2.67
2023-04-11T10:45:25.027Z,2.53
2023-04-11T10:47:51.533Z,2.93
2023-04-11T10:50:27.251Z,2.60
2023-04-11T10:52:54.236Z,2.37
2023-04-11T10:55:21.076Z,2.30
2023-04-11T10:58:05.644Z,2.07
2023-04-11T11:01:00.899Z,2.33
2023-04-11T11:03:30.380Z,2.40
2023-04-11T11:06:04.664Z,2.40
2023-04-11T11:08:38.133Z,2.17
2023-04-11T11:11:08.694Z,2.40
2023-04-11T11:13:41.322Z,2.20
2023-04-11T11:16:08.716Z,2.60
2023-04-11T11:18:35.456Z,2.40
2023-04-11T11:21:01.986Z,2.33
2023-04-11T11:23:28.568Z,2.13
2023-04-11T11:25:55.812Z,2.30
2023-04-11T11:28:22.593Z,2.10
2023-04-11T11:30:56.582Z,2.30
2023-04-11T11:33:26.752Z,2.20
2023-04-11T11:36:00.559Z,2.20
2023-04-11T11:38:30.472Z,2.17
2023-04-11T11:40:57.809Z,2.17
2023-04-11T11:43:27.521Z,2.37
2023-04-11T11:46:08.790Z,2.50
2023-04-11T11:48:35.665Z,2.50
2023-04-11T11:51:02.261Z,2.13
2023-04-11T11:53:28.837Z,2.57
2023-04-11T11:55:56.838Z,2.20
2023-04-11T11:58:23.554Z,2.43
2023-04-11T12:00:50.911Z,2.50
2023-04-11T12:03:18.833Z,2.53
2023-04-11T12:05:47.675Z,2.87
2023-04-11T12:08:14.270Z,2.40
2023-04-11T12:10:42.309Z,2.20
2023-04-11T12:13:15.067Z,2.43
2023-04-11T12:15:43.356Z,2.40
2023-04-11T12:18:09.988Z,2.30
2023-04-11T12:20:36.585Z,2.40
2023-04-11T12:23:03.111Z,2.30
2023-04-11T12:25:30.235Z,2.53
2023-04-11T12:27:56.829Z,2.80
2023-04-11T12:30:23.393Z,2.40
2023-04-11T12:32:50.014Z,2.30
2023-04-11T12:35:16.628Z,2.10
2023-04-11T12:37:44.202Z,2.07
2023-04-11T12:40:12.307Z,2.20
2023-04-11T12:42:49.401Z,2.40
2023-04-11T12:45:22.212Z,2.30
2023-04-11T12:47:48.809Z,2.20
2023-04-11T12:50:15.460Z,2.20
2023-04-11T12:52:42.004Z,2.07
2023-04-11T12:55:09.402Z,2.30
2023-04-11T12:57:36.614Z,2.17
2023-04-11T13:00:07.127Z,2.13
2023-04-11T13:02:42.049Z,2.20
2023-04-11T13:05:10.911Z,2.00
2023-04-11T13:07:37.908Z,2.17
2023-04-11T13:10:06.674Z,2.57
2023-04-11T13:12:34.202Z,2.30
2023-04-11T13:15:01.009Z,2.57
2023-04-11T13:17:27.540Z,2.47
2023-04-11T13:19:54.058Z,2.00
2023-04-11T13:22:21.082Z,2.40
2023-04-11T13:24:47.649Z,2.00
2023-04-11T13:27:14.208Z,2.13
2023-04-11T13:29:41.138Z,2.00
2023-04-11T13:32:07.726Z,2.10
2023-04-11T13:34:34.349Z,2.10
2023-04-11T13:37:00.948Z,2.33
2023-04-11T13:39:30.562Z,2.20
2023-04-11T13:41:57.121Z,2.10
2023-04-11T13:44:23.650Z,2.13
2023-04-11T13:46:50.219Z,2.20
2023-04-11T13:49:16.707Z,2.10
2023-04-11T13:51:43.265Z,2.30
2023-04-11T13:54:09.816Z,2.27
2023-04-11T13:56:36.513Z,2.17
2023-04-11T13:59:04.533Z,2.00
2023-04-11T14:01:31.506Z,1.73
2023-04-11T14:03:58.296Z,2.40
2023-04-11T14:06:25.028Z,2.00
2023-04-11T14:08:52.034Z,2.20
2023-04-11T14:11:18.541Z,2.00
2023-04-11T14:13:45.052Z,2.00
2023-04-11T14:16:11.635Z,2.30
2023-04-11T14:18:38.160Z,1.90
2023-04-11T14:21:08.258Z,2.40
2023-04-11T14:23:34.778Z,2.00
2023-04-11T14:26:01.351Z,2.17
2023-04-11T14:28:27.853Z,2.00
2023-04-11T14:30:55.666Z,2.53
2023-04-11T14:33:23.305Z,2.60
2023-04-11T14:35:50.793Z,2.30
2023-04-11T14:38:17.688Z,1.90
2023-04-11T14:40:44.392Z,2.20
2023-04-11T14:43:11.300Z,2.50
2023-04-11T14:45:37.924Z,2.23
2023-04-11T14:48:04.782Z,2.13
2023-04-11T14:50:31.420Z,2.40
2023-04-11T14:52:58.036Z,2.60
2023-04-11T14:55:24.580Z,2.47
2023-04-11T14:57:52.654Z,3.00
2023-04-11T15:00:22.375Z,2.50
2023-04-11T15:02:54.469Z,3.30
2023-04-11T15:05:21.567Z,2.93
2023-04-11T15:07:48.875Z,2.80
2023-04-11T15:10:17.307Z,2.77
2023-04-11T15:12:43.976Z,2.60
2023-04-11T15:15:11.183Z,3.07
2023-04-11T15:17:48.496Z,3.20
2023-04-11T15:20:15.654Z,3.20
2023-04-11T15:22:43.397Z,3.53
2023-04-11T15:25:14.437Z,3.70
2023-04-11T15:27:41.192Z,3.87
2023-04-11T15:30:08.648Z,3.83
2023-04-11T15:32:35.329Z,3.53
2023-04-11T15:35:02.071Z,3.37
2023-04-11T15:37:29.050Z,3.20
2023-04-11T15:39:57.641Z,3.93
2023-04-11T15:42:24.591Z,3.40
2023-04-11T15:44:51.217Z,3.43
2023-04-11T15:47:18.349Z,3.40
2023-04-11T15:49:44.987Z,3.50
2023-04-11T15:52:11.860Z,3.47
2023-04-11T15:54:38.431Z,4.13
2023-04-11T15:57:04.913Z,4.13
2023-04-11T15:59:31.473Z,3.43
2023-04-11T16:01:58.121Z,3.50
2023-04-11T16:04:25.699Z,3.33
2023-04-11T16:06:52.623Z,3.40
2023-04-11T16:09:19.275Z,3.57
2023-04-11T16:11:46.019Z,2.70
2023-04-11T16:14:12.798Z,3.23
2023-04-11T16:16:39.507Z,3.17
2023-04-11T16:19:06.554Z,3.07
2023-04-11T16:21:33.116Z,3.03
2023-04-11T16:23:59.805Z,2.50
2023-04-11T16:26:26.995Z,2.90
2023-04-11T16:28:53.592Z,2.33
2023-04-11T16:31:24.480Z,2.50
2023-04-11T16:33:52.692Z,2.47
2023-04-11T16:36:20.392Z,2.50
2023-04-11T16:38:47.639Z,2.40
2023-04-11T16:41:15.499Z,2.80
2023-04-11T16:43:42.024Z,2.67
2023-04-11T16:46:13.179Z,2.53
2023-04-11T16:48:40.886Z,2.00
2023-04-11T16:51:07.822Z,2.57
2023-04-11T16:53:34.841Z,2.20
2023-04-11T16:56:01.444Z,2.20
2023-04-11T16:58:28.497Z,2.10
2023-04-11T17:00:55.382Z,2.60
2023-04-11T17:03:22.162Z,2.10
2023-04-11T17:05:48.840Z,2.10
2023-04-11T17:08:17.206Z,2.20
2023-04-11T17:10:44.239Z,2.23
2023-04-11T17:13:11.926Z,2.20
2023-04-11T17:15:38.456Z,2.30
2023-04-11T17:18:05.113Z,2.53
2023-04-11T17:20:31.668Z,2.53
2023-04-11T17:22:58.221Z,2.13
2023-04-11T17:25:24.759Z,2.23
2023-04-11T17:27:51.328Z,2.30
2023-04-11T17:30:18.020Z,1.90
2023-04-11T17:35:14.470Z,2.43
2023-04-11T17:37:41.073Z,2.10
2023-04-11T17:40:12.185Z,2.00
2023-04-11T17:42:38.999Z,2.30
2023-04-11T17:45:16.736Z,2.00
2023-04-11T17:47:43.987Z,2.50
2023-04-11T17:50:11.556Z,2.03
2023-04-11T17:52:46.193Z,2.10
2023-04-11T17:55:14.227Z,2.30
2023-04-11T17:57:40.839Z,2.00
2023-04-11T18:00:28.401Z,2.03
2023-04-11T18:02:57.743Z,1.80
2023-04-11T18:05:28.290Z,2.00
2023-04-11T18:07:57.256Z,2.23
2023-04-11T18:10:24.614Z,2.20
2023-04-11T18:12:51.735Z,1.87
2023-04-11T18:15:18.429Z,2.17
2023-04-11T18:17:45.340Z,2.30
2023-04-11T18:20:12.339Z,2.20
2023-04-11T18:22:40.085Z,2.20
2023-04-11T18:25:07.304Z,2.10
2023-04-11T18:27:34.318Z,2.10
2023-04-11T18:30:01.125Z,2.77
2023-04-11T18:32:30.147Z,2.40
2023-04-11T18:35:03.649Z,2.13
2023-04-11T18:37:34.043Z,2.40
2023-04-11T18:40:00.650Z,2.63
2023-04-11T18:42:27.218Z,2.40
2023-04-11T18:44:54.288Z,2.37
2023-04-11T18:47:21.129Z,2.57
2023-04-11T18:49:47.716Z,2.47
2023-04-11T18:52:14.343Z,2.63
2023-04-11T18:54:40.965Z,1.70
2023-04-11T18:57:08.055Z,1.93
2023-04-11T18:59:39.529Z,2.00
2023-04-11T19:02:07.264Z,2.00
2023-04-11T19:04:34.044Z,2.37
2023-04-11T19:07:01.323Z,1.80
2023-04-11T19:09:28.080Z,2.40
2023-04-11T19:11:54.651Z,2.07
2023-04-11T19:14:21.412Z,2.33
2023-04-11T19:16:48.022Z,2.17
2023-04-11T19:19:14.592Z,2.53
2023-04-11T19:21:42.093Z,2.47
2023-04-11T19:24:09.630Z,2.40
2023-04-11T19:26:36.288Z,1.87
2023-04-11T19:29:02.807Z,1.97
2023-04-11T19:31:32.422Z,2.27
2023-04-11T19:34:00.195Z,2.10
2023-04-11T19:36:29.343Z,2.07
2023-04-11T19:38:55.906Z,2.47
2023-04-11T19:41:22.532Z,2.20
2023-04-11T19:43:49.190Z,2.40
2023-04-11T19:46:16.184Z,2.00
2023-04-11T19:48:43.215Z,2.10
2023-04-11T19:51:10.330Z,2.10
2023-04-11T19:53:38.103Z,1.87
2023-04-11T19:56:08.698Z,1.90
2023-04-11T19:58:35.306Z,1.93
2023-04-11T20:01:02.627Z,2.30
2023-04-11T20:03:29.451Z,2.30
2023-04-11T20:05:56.523Z,2.20
2023-04-11T20:08:23.090Z,2.17
2023-04-11T20:10:49.702Z,2.40
2023-04-11T20:13:19.220Z,2.10
2023-04-11T20:15:45.760Z,2.17
2023-04-11T20:18:12.471Z,2.30
2023-04-11T20:20:39.144Z,2.03
2023-04-11T20:23:06.356Z,2.43
2023-04-11T20:25:33.587Z,2.33
2023-04-11T20:28:00.323Z,2.47
2023-04-11T20:30:26.919Z,2.37
2023-04-11T20:32:53.545Z,2.87
2023-04-11T20:35:20.222Z,2.70
2023-04-11T20:37:47.830Z,2.93
2023-04-11T20:40:14.774Z,2.80
2023-04-11T20:42:42.543Z,3.30
2023-04-11T20:45:10.732Z,3.27
2023-04-11T20:47:40.356Z,3.33
2023-04-11T20:50:08.905Z,3.20
2023-04-11T20:52:35.573Z,3.50
2023-04-11T20:55:02.783Z,2.97
2023-04-11T20:57:33.629Z,3.20
2023-04-11T21:00:00.936Z,3.80
2023-04-11T21:02:27.722Z,3.57
2023-04-11T21:04:55.535Z,3.63
2023-04-11T21:07:22.102Z,3.70
2023-04-11T21:09:49.024Z,4.17
2023-04-11T21:12:15.809Z,3.10
2023-04-11T21:14:42.373Z,4.07
2023-04-11T21:17:09.174Z,3.93
2023-04-11T21:19:36.328Z,3.97
2023-04-11T21:22:03.530Z,4.13
2023-04-11T21:24:33.745Z,4.07
2023-04-11T21:27:01.327Z,4.63
2023-04-11T21:29:28.181Z,4.37
2023-04-11T21:31:54.753Z,4.00
2023-04-11T21:34:21.296Z,3.90
2023-04-11T21:36:47.805Z,3.80
2023-04-11T21:39:14.312Z,4.33
2023-04-11T21:41:41.156Z,3.60
2023-04-11T21:44:07.688Z,4.73
2023-04-11T21:46:34.522Z,3.77
2023-04-11T21:49:01.138Z,4.00
2023-04-11T21:51:28.159Z,3.80
2023-04-11T21:53:54.747Z,4.23
2023-04-11T21:56:21.396Z,3.93
2023-04-11T21:58:47.948Z,3.87
2023-04-11T22:01:15.341Z,4.00
2023-04-11T22:03:42.646Z,3.73
2023-04-11T22:06:10.258Z,4.17
2023-04-11T22:08:39.014Z,4.17
2023-04-11T22:11:10.246Z,4.33
2023-04-11T22:13:40.062Z,4.03
2023-04-11T22:16:07.328Z,3.50
2023-04-11T22:18:46.142Z,3.70
2023-04-11T22:21:20.056Z,3.67
2023-04-11T22:23:54.373Z,4.10
2023-04-11T22:26:29.292Z,4.10
2023-04-11T22:28:57.324Z,3.67
2023-04-11T22:31:30.258Z,3.57
2023-04-11T22:33:57.608Z,4.10
2023-04-11T22:36:24.521Z,3.80
2023-04-11T22:38:51.062Z,3.90
2023-04-11T22:41:17.919Z,3.90
2023-04-11T22:43:44.517Z,3.83
2023-04-11T22:46:11.179Z,3.67
2023-04-11T22:48:38.113Z,3.80
2023-04-11T22:51:06.043Z,3.53
2023-04-11T22:53:34.310Z,2.87
2023-04-11T22:56:02.020Z,3.40
2023-04-11T22:58:28.619Z,3.30
2023-04-11T23:00:55.707Z,3.37
2023-04-11T23:03:22.435Z,3.40
2023-04-11T23:05:49.677Z,3.33
2023-04-11T23:08:16.682Z,3.10
2023-04-11T23:10:43.264Z,3.70
2023-04-11T23:13:09.837Z,3.50
2023-04-11T23:15:37.366Z,3.03
2023-04-11T23:18:04.087Z,3.17
2023-04-11T23:20:30.966Z,3.07
2023-04-11T23:22:58.395Z,3.50
2023-04-11T23:25:25.308Z,3.60
2023-04-11T23:27:52.574Z,3.40
2023-04-11T23:30:20.094Z,3.30
2023-04-11T23:32:47.073Z,3.27
2023-04-11T23:35:16.744Z,3.23
2023-04-11T23:37:43.377Z,2.97
2023-04-11T23:40:11.206Z,3.20
2023-04-11T23:42:38.476Z,3.00
2023-04-11T23:45:06.658Z,3.40
2023-04-11T23:47:33.787Z,3.07
2023-04-11T23:50:02.618Z,3.60
2023-04-11T23:52:29.263Z,3.10
2023-04-11T23:54:56.437Z,2.70
2023-04-11T23:57:23.381Z,3.13
2023-04-11T23:59:49.883Z,3.00
